Time;durP1;ratioP1;P1;durP2;ratioP2;P2;SDS_P1;SDS_P2;PMS_P1;PMS_P2;Temp;Humidity;BMP_temperature;BMP_pressure;BME280_temperature;BME280_humidity;BME280_pressure;Samples;Min_cycle;Max_cycle;Signal;HPM_P1;HPM_P2
2022/10/21 00:00:39;;;;;;;3.13;2.85;;;7.50;99.90;;;;;;4822222;29;20058;-71
2022/10/21 00:03:08;;;;;;;3.05;2.75;;;7.50;99.90;;;;;;4803573;29;20082;-71
2022/10/21 00:05:35;;;;;;;2.90;2.70;;;7.50;99.90;;;;;;4809020;29;20051;-71
2022/10/21 00:08:02;;;;;;;2.83;2.72;;;7.50;99.90;;;;;;4822959;29;20070;-71
2022/10/21 00:10:30;;;;;;;3.55;3.22;;;7.40;99.90;;;;;;4822063;29;20078;-71
2022/10/21 00:12:57;;;;;;;3.30;3.03;;;7.40;99.90;;;;;;4823325;29;20061;-71
2022/10/21 00:15:24;;;;;;;5.90;3.50;;;7.40;99.90;;;;;;4823133;29;20065;-70
2022/10/21 00:17:52;;;;;;;3.22;2.92;;;7.40;99.90;;;;;;4822428;29;20151;-71
2022/10/21 00:20:20;;;;;;;3.63;3.33;;;7.30;99.90;;;;;;4822752;29;20519;-71
2022/10/21 00:22:47;;;;;;;3.30;3.00;;;7.30;99.90;;;;;;4823325;29;20072;-73
2022/10/21 00:25:17;;;;;;;4.15;3.75;;;7.30;99.90;;;;;;4822870;29;20058;-70
2022/10/21 00:27:44;;;;;;;3.22;2.38;;;7.20;99.90;;;;;;4822284;29;20057;-71
2022/10/21 00:30:12;;;;;;;4.47;2.72;;;7.20;99.90;;;;;;4822830;29;20065;-72
2022/10/21 00:32:39;;;;;;;3.10;2.47;;;7.20;99.90;;;;;;4821391;29;20046;-71
2022/10/21 00:35:08;;;;;;;2.50;2.40;;;7.20;99.90;;;;;;4821633;29;20431;-72
2022/10/21 00:37:35;;;;;;;3.15;2.90;;;7.20;99.90;;;;;;4820356;29;20060;-72
2022/10/21 00:40:03;;;;;;;4.93;2.95;;;7.20;99.90;;;;;;4803652;29;20100;-72
2022/10/21 00:42:33;;;;;;;3.30;3.00;;;7.20;99.90;;;;;;4811485;29;20062;-71
2022/10/21 00:45:17;;;;;;;4.55;3.03;;;7.20;99.90;;;;;;4821835;29;20050;-71
2022/10/21 00:47:49;;;;;;;3.38;3.08;;;7.20;99.90;;;;;;4822722;29;20153;-72
2022/10/21 00:50:26;;;;;;;5.35;3.22;;;7.30;99.90;;;;;;4821134;29;20082;-72
2022/10/21 00:52:54;;;;;;;3.70;3.45;;;7.30;99.90;;;;;;4822996;29;20503;-71
2022/10/21 00:55:22;;;;;;;3.90;3.47;;;7.30;99.90;;;;;;4821204;29;20057;-71
2022/10/21 00:57:51;;;;;;;3.40;3.10;;;7.30;99.90;;;;;;4822484;29;20054;-71
2022/10/21 01:00:18;;;;;;;4.45;3.45;;;7.30;99.90;;;;;;4821181;29;20519;-72
2022/10/21 01:02:46;;;;;;;4.93;3.45;;;7.30;99.90;;;;;;4820834;29;20086;-72
2022/10/21 01:05:14;;;;;;;6.05;3.65;;;7.20;99.90;;;;;;4821605;29;20085;-71
2022/10/21 01:07:43;;;;;;;4.40;4.10;;;7.30;99.90;;;;;;4822412;29;20050;-72
2022/10/21 01:10:10;;;;;;;4.30;3.97;;;7.20;99.90;;;;;;4820709;29;20126;-72
2022/10/21 01:12:54;;;;;;;4.60;4.20;;;7.30;99.90;;;;;;4820914;29;20046;-72
2022/10/21 01:15:27;;;;;;;4.28;3.88;;;7.20;99.90;;;;;;4822209;29;20139;-72
2022/10/21 01:18:00;;;;;;;;;;;7.20;99.90;;;;;;4822762;29;20053;-71
2022/10/21 01:21:01;;;;;;;5.03;4.20;;;7.20;99.90;;;;;;4821683;29;19929;-77
2022/10/21 01:23:54;;;;;;;4.35;3.97;;;7.20;99.90;;;;;;4821993;29;20062;-77
2022/10/21 01:27:03;;;;;;;6.05;3.85;;;7.10;99.90;;;;;;4820767;29;20106;-77
2022/10/21 01:30:08;;;;;;;4.07;3.72;;;7.10;99.90;;;;;;4821865;29;20534;-77
2022/10/21 01:32:59;;;;;;;5.55;4.70;;;7.10;99.90;;;;;;4815132;29;20515;-78
2022/10/21 01:35:33;;;;;;;4.47;4.05;;;7.10;99.90;;;;;;4821383;29;20545;-77
2022/10/21 01:38:07;;;;;;;5.40;4.65;;;7.10;99.90;;;;;;4820562;29;20051;-78
2022/10/21 01:40:39;;;;;;;4.78;4.38;;;7.10;99.90;;;;;;4811550;29;20074;-78
2022/10/21 01:43:14;;;;;;;4.45;4.13;;;7.10;99.90;;;;;;4817839;29;20058;-78
2022/10/21 01:45:47;;;;;;;4.95;4.55;;;7.10;99.90;;;;;;4815985;29;20051;-79
2022/10/21 01:48:20;;;;;;;6.80;4.60;;;7.00;99.90;;;;;;4819584;29;20345;-78
2022/10/21 01:50:51;;;;;;;10.13;5.22;;;7.00;99.90;;;;;;4821920;29;20058;-77
2022/10/21 01:53:21;;;;;;;5.22;4.63;;;7.00;99.90;;;;;;4819964;29;20054;-78
2022/10/21 01:55:50;;;;;;;4.20;3.80;;;7.00;99.90;;;;;;4822595;29;20050;-78
2022/10/21 01:58:20;;;;;;;3.95;3.65;;;7.00;99.90;;;;;;4821572;29;20139;-77
2022/10/21 02:00:49;;;;;;;4.72;4.30;;;7.00;99.90;;;;;;4808711;29;20050;-78
2022/10/21 02:03:21;;;;;;;4.63;4.32;;;7.00;99.90;;;;;;4821947;29;20055;-78
2022/10/21 02:05:49;;;;;;;7.13;4.30;;;7.00;99.90;;;;;;4821293;29;20069;-76
2022/10/21 02:08:16;;;;;;;4.78;4.38;;;7.00;99.90;;;;;;4820478;29;20057;-78
2022/10/21 02:10:47;;;;;;;4.72;4.20;;;7.00;99.90;;;;;;4820043;29;20059;-78
2022/10/21 02:13:18;;;;;;;4.35;4.00;;;7.00;99.90;;;;;;4821594;29;20050;-78
2022/10/21 02:16:09;;;;;;;5.95;4.05;;;7.00;99.90;;;;;;4818844;29;20602;-80
2022/10/21 02:18:37;;;;;;;4.80;4.30;;;7.00;99.90;;;;;;4819677;29;20054;-79
2022/10/21 02:21:08;;;;;;;4.72;4.20;;;7.00;99.90;;;;;;4819368;29;20573;-79
2022/10/21 02:23:42;;;;;;;4.60;4.28;;;7.10;99.90;;;;;;4819368;29;20066;-79
2022/10/21 02:26:10;;;;;;;3.95;3.65;;;7.10;99.90;;;;;;4819370;29;20584;-78
2022/10/21 02:28:38;;;;;;;5.03;4.43;;;7.10;99.90;;;;;;4819181;29;20054;-78
2022/10/21 02:31:17;;;;;;;5.88;4.25;;;7.10;99.90;;;;;;4825356;29;20050;-79
2022/10/21 02:33:57;;;;;;;4.25;3.95;;;7.20;99.90;;;;;;4811795;29;20050;-78
2022/10/21 02:36:36;;;;;;;4.63;4.30;;;7.10;99.90;;;;;;4823497;29;20132;-78
2022/10/21 02:39:09;;;;;;;4.47;4.07;;;7.10;99.90;;;;;;4822685;29;20439;-78
2022/10/21 02:41:40;;;;;;;4.47;3.70;;;7.10;99.90;;;;;;4824510;29;20046;-78
2022/10/21 02:44:08;;;;;;;4.63;4.20;;;7.10;99.90;;;;;;4823527;29;20058;-78
2022/10/21 02:46:37;;;;;;;5.82;4.55;;;7.20;99.90;;;;;;4823188;29;20061;-77
2022/10/21 02:49:06;;;;;;;6.05;4.35;;;7.10;99.90;;;;;;4822875;29;20105;-78
2022/10/21 02:51:33;;;;;;;4.53;4.13;;;7.20;99.90;;;;;;4823458;29;20054;-78
2022/10/21 02:54:00;;;;;;;5.07;3.80;;;7.20;99.90;;;;;;4823263;29;20062;-78
2022/10/21 02:56:28;;;;;;;4.47;3.55;;;7.10;99.90;;;;;;4822850;29;20463;-78
2022/10/21 02:58:55;;;;;;;3.42;3.22;;;7.10;99.90;;;;;;4838097;29;20058;-78
2022/10/21 03:01:22;;;;;;;4.53;3.75;;;7.10;99.90;;;;;;4823427;29;20046;-78
2022/10/21 03:03:49;;;;;;;6.10;3.92;;;7.10;99.90;;;;;;4824155;29;20053;-78
2022/10/21 03:06:17;;;;;;;4.55;4.13;;;7.10;99.90;;;;;;4822870;29;20061;-77
2022/10/21 03:08:44;;;;;;;4.28;3.90;;;7.10;99.90;;;;;;4809226;29;20131;-79
2022/10/21 03:11:12;;;;;;;4.07;3.78;;;7.10;99.90;;;;;;4818843;29;20066;-78
2022/10/21 03:13:39;;;;;;;4.78;4.13;;;7.10;99.90;;;;;;4823039;29;20054;-77
2022/10/21 03:16:07;;;;;;;3.95;3.65;;;7.00;99.90;;;;;;4822677;29;20054;-78
2022/10/21 03:18:34;;;;;;;3.85;3.55;;;7.00;99.90;;;;;;4809422;29;20050;-78
2022/10/21 03:21:01;;;;;;;4.38;4.07;;;7.00;99.90;;;;;;4823777;29;20054;-77
2022/10/21 03:23:30;;;;;;;4.88;4.05;;;7.00;99.90;;;;;;4823248;29;20370;-79
2022/10/21 03:25:57;;;;;;;5.75;3.90;;;7.00;99.90;;;;;;4822355;29;20095;-78
2022/10/21 03:28:24;;;;;;;4.93;4.50;;;7.00;99.90;;;;;;4823051;29;20064;-77
2022/10/21 03:30:51;;;;;;;4.80;4.50;;;7.00;99.90;;;;;;4823903;29;20046;-77
2022/10/21 03:33:19;;;;;;;7.60;5.00;;;7.00;99.90;;;;;;4822577;29;20058;-78
2022/10/21 03:35:46;;;;;;;5.47;4.63;;;7.00;99.90;;;;;;4823867;29;20057;-77
2022/10/21 03:38:13;;;;;;;4.88;4.07;;;7.00;99.90;;;;;;4806797;29;20538;-78
2022/10/21 03:40:41;;;;;;;5.85;4.85;;;7.00;99.90;;;;;;4823406;29;20053;-78
2022/10/21 03:43:08;;;;;;;5.25;4.80;;;7.00;99.90;;;;;;4803884;29;20150;-78
2022/10/21 03:45:35;;;;;;;6.38;5.60;;;7.10;99.90;;;;;;4822154;29;20054;-77
2022/10/21 03:48:03;;;;;;;5.18;4.78;;;7.10;99.90;;;;;;4823479;29;20066;-78
2022/10/21 03:50:30;;;;;;;6.18;5.70;;;7.10;99.90;;;;;;4823255;29;20089;-78
2022/10/21 03:52:58;;;;;;;5.88;5.38;;;7.00;99.90;;;;;;4822166;29;20042;-78
2022/10/21 03:55:25;;;;;;;6.25;5.75;;;7.10;99.90;;;;;;4822393;29;20069;-77
2022/10/21 03:57:54;;;;;;;6.75;6.15;;;7.10;99.90;;;;;;4823333;29;20050;-78
2022/10/21 04:00:21;;;;;;;5.93;5.38;;;7.10;99.90;;;;;;4823138;29;20061;-78
2022/10/21 04:02:48;;;;;;;7.93;6.30;;;7.10;99.90;;;;;;4823515;29;20069;-78
2022/10/21 04:05:16;;;;;;;5.80;5.30;;;7.10;99.90;;;;;;4822682;29;20061;-78
2022/10/21 04:07:43;;;;;;;6.82;6.10;;;7.10;99.90;;;;;;4802215;29;20057;-78
2022/10/21 04:10:11;;;;;;;6.70;5.93;;;7.10;99.90;;;;;;4821929;29;20057;-78
2022/10/21 04:12:39;;;;;;;7.65;6.65;;;7.10;99.90;;;;;;4812142;29;20412;-79
2022/10/21 04:15:12;;;;;;;6.20;5.70;;;7.10;99.90;;;;;;4820148;29;20058;-78
2022/10/21 04:17:39;;;;;;;8.65;6.47;;;7.10;99.90;;;;;;4830164;29;20126;-72
2022/10/21 04:20:08;;;;;;;6.35;5.70;;;7.10;99.90;;;;;;4836916;29;20099;-73
2022/10/21 04:22:36;;;;;;;7.00;6.35;;;7.10;99.90;;;;;;4819187;29;20057;-73
2022/10/21 04:25:03;;;;;;;6.68;6.10;;;7.10;99.90;;;;;;4823375;29;20054;-70
2022/10/21 04:27:30;;;;;;;7.97;6.35;;;7.10;99.90;;;;;;4822094;29;20125;-70
2022/10/21 04:29:57;;;;;;;7.03;6.18;;;7.10;99.90;;;;;;4805033;29;20165;-72
2022/10/21 04:32:25;;;;;;;7.50;5.68;;;7.10;99.90;;;;;;4817734;29;20050;-78
2022/10/21 04:34:53;;;;;;;7.40;6.07;;;7.10;99.90;;;;;;4815793;29;20622;-78
2022/10/21 04:37:20;;;;;;;8.98;6.45;;;7.10;99.90;;;;;;4820539;29;20057;-78
2022/10/21 04:39:47;;;;;;;7.30;6.47;;;7.10;99.90;;;;;;4821953;29;20528;-77
2022/10/21 04:42:14;;;;;;;6.80;5.57;;;7.10;99.90;;;;;;4819973;29;20503;-73
2022/10/21 04:44:45;;;;;;;6.68;6.10;;;7.10;99.90;;;;;;4822167;29;20054;-76
2022/10/21 04:47:14;;;;;;;10.57;6.18;;;7.10;99.90;;;;;;4804598;29;20082;-77
2022/10/21 04:49:44;;;;;;;7.10;6.25;;;7.10;99.90;;;;;;4803123;29;20531;-72
2022/10/21 04:52:11;;;;;;;9.43;5.95;;;7.10;99.90;;;;;;4821481;29;20054;-72
2022/10/21 04:54:38;;;;;;;8.35;6.43;;;7.10;99.90;;;;;;4820576;29;20051;-71
2022/10/21 04:57:06;;;;;;;9.07;6.43;;;7.10;99.90;;;;;;4823351;29;20081;-77
2022/10/21 04:59:33;;;;;;;8.70;6.07;;;7.10;99.90;;;;;;4818163;29;20085;-77
2022/10/21 05:02:00;;;;;;;6.55;5.63;;;7.10;99.90;;;;;;4822923;29;20519;-79
2022/10/21 05:04:27;;;;;;;7.47;6.03;;;7.10;99.90;;;;;;4803511;29;20046;-78
2022/10/21 05:06:56;;;;;;;7.50;6.18;;;7.10;99.90;;;;;;4823505;29;20137;-77
2022/10/21 05:09:23;;;;;;;8.45;6.63;;;7.10;99.90;;;;;;4821294;29;20058;-80
2022/10/21 05:11:50;;;;;;;9.10;6.30;;;7.10;99.90;;;;;;4815574;29;20462;-79
2022/10/21 05:14:18;;;;;;;11.13;7.07;;;7.10;99.90;;;;;;4814177;29;20143;-72
2022/10/21 05:16:45;;;;;;;9.95;6.75;;;7.10;99.90;;;;;;4816677;29;20105;-73
2022/10/21 05:19:12;;;;;;;8.43;6.07;;;7.10;99.90;;;;;;4807281;29;20058;-72
2022/10/21 05:21:39;;;;;;;10.43;6.85;;;7.20;99.90;;;;;;4816807;29;20433;-73
2022/10/21 05:24:08;;;;;;;21.58;8.07;;;7.20;99.90;;;;;;4803259;29;20469;-71
2022/10/21 05:26:35;;;;;;;28.25;9.68;;;7.20;99.90;;;;;;4818716;29;20143;-74
2022/10/21 05:29:03;;;;;;;18.25;8.02;;;7.20;99.90;;;;;;4816567;29;20058;-73
2022/10/21 05:31:33;;;;;;;21.48;10.48;;;7.20;99.90;;;;;;4812115;29;20054;-73
2022/10/21 05:34:00;;;;;;;14.93;7.65;;;7.20;99.90;;;;;;4814261;29;20057;-74
2022/10/21 05:36:28;;;;;;;7.80;6.38;;;7.30;99.90;;;;;;4813817;29;20479;-73
2022/10/21 05:38:55;;;;;;;10.15;7.15;;;7.20;99.90;;;;;;4816509;29;20058;-73
2022/10/21 05:41:24;;;;;;;8.73;7.60;;;7.20;99.90;;;;;;4818489;29;20050;-77
2022/10/21 05:43:51;;;;;;;13.70;8.90;;;7.20;99.90;;;;;;4816475;29;20462;-73
2022/10/21 05:46:19;;;;;;;10.50;7.60;;;7.10;99.90;;;;;;4817373;29;20051;-74
2022/10/21 05:48:46;;;;;;;8.25;7.00;;;7.10;99.90;;;;;;4811876;29;20430;-73
2022/10/21 05:51:13;;;;;;;18.90;9.38;;;7.10;99.90;;;;;;4819942;29;20271;-73
2022/10/21 05:53:40;;;;;;;9.15;8.20;;;7.10;99.90;;;;;;4816902;29;20400;-76
2022/10/21 05:56:08;;;;;;;11.48;7.97;;;7.20;99.90;;;;;;4815303;29;20058;-72
2022/10/21 05:58:37;;;;;;;10.43;7.85;;;7.20;99.90;;;;;;4821179;29;20058;-78
2022/10/21 06:01:04;;;;;;;11.43;7.78;;;7.30;99.90;;;;;;4807786;29;20055;-78
2022/10/21 06:03:33;;;;;;;10.23;7.63;;;7.30;99.90;;;;;;4810850;29;20070;-77
2022/10/21 06:06:03;;;;;;;13.35;7.97;;;7.30;99.90;;;;;;4812987;29;20125;-78
2022/10/21 06:08:33;;;;;;;11.15;7.65;;;7.40;99.90;;;;;;4811270;29;20054;-81
2022/10/21 06:11:00;;;;;;;15.52;8.02;;;7.50;99.90;;;;;;4816986;29;20054;-80
2022/10/21 06:13:28;;;;;;;9.50;8.18;;;7.50;99.90;;;;;;4816088;29;20054;-79
2022/10/21 06:15:56;;;;;;;10.50;7.88;;;7.60;99.90;;;;;;4816298;29;20043;-77
2022/10/21 06:18:24;;;;;;;11.82;8.48;;;7.60;99.90;;;;;;4815025;29;20047;-78
2022/10/21 06:20:51;;;;;;;10.50;7.60;;;7.60;99.90;;;;;;4819417;29;20053;-77
2022/10/21 06:23:18;;;;;;;14.52;7.88;;;7.60;99.90;;;;;;4826064;29;20050;-78
2022/10/21 06:25:55;;;;;;;12.38;7.68;;;7.70;99.90;;;;;;4833744;29;20072;-77
2022/10/21 06:28:23;;;;;;;8.68;7.80;;;7.80;99.90;;;;;;4831271;29;20095;-74
2022/10/21 06:30:50;;;;;;;12.93;7.95;;;7.80;99.90;;;;;;4825645;29;20056;-75
2022/10/21 06:33:19;;;;;;;11.10;7.82;;;7.90;99.90;;;;;;4833209;29;20753;-74
2022/10/21 06:35:46;;;;;;;10.10;7.63;;;8.00;99.90;;;;;;4823486;29;20054;-75
2022/10/21 06:38:14;;;;;;;10.85;7.70;;;8.00;99.90;;;;;;4837095;29;20057;-74
2022/10/21 06:40:41;;;;;;;12.30;7.93;;;8.10;99.90;;;;;;4839934;29;20054;-74
2022/10/21 06:43:08;;;;;;;15.30;8.30;;;8.10;99.90;;;;;;4839665;29;20053;-73
2022/10/21 06:45:36;;;;;;;13.80;8.38;;;8.10;99.90;;;;;;4830793;29;20053;-76
2022/10/21 06:48:03;;;;;;;12.18;8.35;;;8.10;99.90;;;;;;4837165;29;20050;-73
2022/10/21 06:50:32;;;;;;;10.63;7.35;;;8.00;99.90;;;;;;4849602;29;20050;-73
2022/10/21 06:52:59;;;;;;;8.90;7.28;;;8.00;99.90;;;;;;4834765;29;20080;-75
2022/10/21 06:55:27;;;;;;;12.07;7.13;;;8.00;99.90;;;;;;4830937;29;20069;-74
2022/10/21 06:57:54;;;;;;;10.85;7.30;;;8.00;99.90;;;;;;4829828;29;20054;-74
2022/10/21 07:00:21;;;;;;;8.95;7.90;;;8.00;99.90;;;;;;4821458;29;20647;-74
2022/10/21 07:02:48;;;;;;;12.68;8.05;;;8.00;99.90;;;;;;4833876;29;20050;-74
2022/10/21 07:05:16;;;;;;;9.80;7.25;;;8.00;99.90;;;;;;4831552;29;20050;-74
2022/10/21 07:07:44;;;;;;;15.90;7.75;;;8.10;99.90;;;;;;4833596;29;20050;-75
2022/10/21 07:10:12;;;;;;;16.40;7.95;;;8.20;99.90;;;;;;4829231;29;20524;-74
2022/10/21 07:12:39;;;;;;;14.55;7.78;;;8.20;99.90;;;;;;4816048;29;20046;-74
2022/10/21 07:15:07;;;;;;;9.82;7.55;;;8.30;99.90;;;;;;4821412;29;20054;-74
2022/10/21 07:17:34;;;;;;;12.07;7.75;;;8.40;99.90;;;;;;4827577;29;20049;-77
2022/10/21 07:20:02;;;;;;;12.88;8.60;;;8.40;99.90;;;;;;4827852;29;20417;-77
2022/10/21 07:22:31;;;;;;;16.13;9.48;;;8.60;99.90;;;;;;4827358;29;20133;-79
2022/10/21 07:24:59;;;;;;;20.92;8.90;;;8.70;99.90;;;;;;4829697;29;20397;-78
2022/10/21 07:27:27;;;;;;;12.32;7.88;;;8.80;99.90;;;;;;4829664;29;20050;-78
2022/10/21 07:29:54;;;;;;;9.55;8.20;;;8.90;99.90;;;;;;4826164;29;20142;-75
2022/10/21 07:32:21;;;;;;;13.73;8.07;;;9.00;99.90;;;;;;4830476;29;20758;-76
2022/10/21 07:34:48;;;;;;;9.40;8.43;;;9.10;99.90;;;;;;4824274;29;20062;-79
2022/10/21 07:37:15;;;;;;;16.20;8.70;;;9.20;99.90;;;;;;4832314;29;20137;-79
2022/10/21 07:39:43;;;;;;;13.15;8.57;;;9.30;99.90;;;;;;4831784;29;20069;-77
2022/10/21 07:42:11;;;;;;;11.88;8.50;;;9.30;99.90;;;;;;4830823;29;20046;-80
2022/10/21 07:44:39;;;;;;;12.00;9.13;;;9.30;99.90;;;;;;4831493;29;20058;-76
2022/10/21 07:47:06;;;;;;;12.98;9.05;;;9.50;99.90;;;;;;4833542;29;20046;-78
2022/10/21 07:49:33;;;;;;;12.98;8.57;;;9.50;99.90;;;;;;4834749;29;20057;-77
2022/10/21 07:52:00;;;;;;;11.77;8.57;;;9.40;99.90;;;;;;4831671;29;20146;-78
2022/10/21 07:54:28;;;;;;;11.98;7.68;;;9.40;99.90;;;;;;4831570;29;20054;-77
2022/10/21 07:56:55;;;;;;;12.80;9.18;;;9.50;99.90;;;;;;4828711;29;20072;-77
2022/10/21 07:59:23;;;;;;;14.50;8.45;;;9.70;99.90;;;;;;4830491;29;20106;-78
2022/10/21 08:01:51;;;;;;;15.18;9.25;;;9.70;99.90;;;;;;4834690;29;20049;-78
2022/10/21 08:04:23;;;;;;;14.20;9.38;;;9.60;99.90;;;;;;4834641;29;20064;-77
2022/10/21 08:06:50;;;;;;;11.18;8.82;;;9.60;99.90;;;;;;4836353;29;20057;-77
2022/10/21 08:09:18;;;;;;;12.15;8.48;;;9.60;99.90;;;;;;4820457;29;20057;-77
2022/10/21 08:11:45;;;;;;;12.05;7.85;;;9.70;99.90;;;;;;4837032;29;20137;-78
2022/10/21 08:14:13;;;;;;;12.02;8.38;;;9.80;99.90;;;;;;4838056;29;20049;-78
2022/10/21 08:16:42;;;;;;;12.38;7.93;;;9.80;99.90;;;;;;4833027;29;20053;-76
2022/10/21 08:19:15;;;;;;;14.63;9.07;;;9.80;99.90;;;;;;4835857;29;20168;-77
2022/10/21 08:21:42;;;;;;;22.35;10.30;;;9.80;99.90;;;;;;4833018;29;20055;-75
2022/10/21 08:24:09;;;;;;;9.48;8.48;;;9.90;99.90;;;;;;4820189;29;20057;-76
2022/10/21 08:26:36;;;;;;;15.18;8.82;;;9.90;99.90;;;;;;4835830;29;20562;-76
2022/10/21 08:29:04;;;;;;;16.05;9.13;;;10.00;99.90;;;;;;4834405;29;20117;-77
2022/10/21 08:31:31;;;;;;;11.70;7.97;;;10.00;99.90;;;;;;4834063;29;20073;-78
2022/10/21 08:34:00;;;;;;;11.18;8.82;;;10.00;99.90;;;;;;4837972;29;20054;-76
2022/10/21 08:36:27;;;;;;;16.50;9.55;;;10.00;99.90;;;;;;4837689;29;20084;-77
2022/10/21 08:38:55;;;;;;;18.83;9.15;;;10.00;99.90;;;;;;4837283;29;20057;-79
2022/10/21 08:41:41;;;;;;;16.85;9.25;;;10.00;99.90;;;;;;4835705;29;20115;-77
2022/10/21 08:44:19;;;;;;;24.83;9.68;;;9.90;99.90;;;;;;4827084;29;20527;-77
2022/10/21 08:46:49;;;;;;;24.52;9.35;;;10.00;99.90;;;;;;4838759;29;20579;-78
2022/10/21 08:49:22;;;;;;;13.60;8.88;;;10.00;99.90;;;;;;4819350;29;20049;-78
2022/10/21 08:51:51;;;;;;;;;;;10.10;99.90;;;;;;4835647;29;20054;-74
2022/10/21 08:54:24;;;;;;;17.25;10.20;;;10.00;99.90;;;;;;4835056;29;19928;-74
2022/10/21 08:56:57;;;;;;;16.42;9.50;;;9.80;99.90;;;;;;4837317;29;20046;-74
2022/10/21 08:59:26;;;;;;;12.13;8.90;;;9.70;99.90;;;;;;4837481;29;20507;-74
2022/10/21 09:01:59;;;;;;;28.42;9.38;;;9.60;99.90;;;;;;4839117;29;20065;-73
2022/10/21 09:04:38;;;;;;;13.32;8.80;;;9.60;99.90;;;;;;4829648;29;20054;-74
2022/10/21 09:07:12;;;;;;;16.50;9.05;;;9.50;99.90;;;;;;4824330;29;20392;-75
2022/10/21 09:09:47;;;;;;;12.95;9.18;;;9.50;99.90;;;;;;4836197;29;20140;-75
2022/10/21 09:12:20;;;;;;;16.70;9.90;;;9.50;99.90;;;;;;4830236;29;20055;-73
2022/10/21 09:14:59;;;;;;;18.40;8.85;;;9.60;99.90;;;;;;4800951;29;20153;-74
2022/10/21 09:17:52;;;;;;;20.08;10.55;;;9.70;99.90;;;;;;4828403;29;20046;-77
2022/10/21 09:20:32;;;;;;;16.40;10.70;;;9.80;99.90;;;;;;4810874;29;20066;-77
2022/10/21 09:23:11;;;;;;;23.17;11.27;;;9.90;99.90;;;;;;4830779;29;20054;-78
2022/10/21 09:25:45;;;;;;;13.60;10.55;;;10.00;99.90;;;;;;4836015;29;20061;-80
2022/10/21 09:28:14;;;;;;;30.50;15.23;;;10.10;99.90;;;;;;4834395;29;20057;-76
2022/10/21 09:30:43;;;;;;;15.43;11.15;;;10.20;99.90;;;;;;4838153;29;20053;-77
2022/10/21 09:33:17;;;;;;;20.95;11.02;;;10.20;99.90;;;;;;4837103;29;20094;-78
2022/10/21 09:35:47;;;;;;;;;;;10.20;99.90;;;;;;4837073;29;20094;-79
2022/10/21 09:38:19;;;;;;;15.15;10.98;;;10.30;99.90;;;;;;4825308;29;20267;-79
2022/10/21 09:40:49;;;;;;;15.65;10.05;;;10.30;99.90;;;;;;4820247;29;20546;-79
2022/10/21 09:43:19;;;;;;;15.43;10.40;;;10.30;99.90;;;;;;4824574;29;20529;-77
2022/10/21 09:45:47;;;;;;;15.93;9.95;;;10.30;99.90;;;;;;4825726;29;20068;-79
2022/10/21 09:48:26;;;;;;;16.65;10.25;;;10.20;99.90;;;;;;4824140;29;20054;-77
2022/10/21 09:50:59;;;;;;;20.65;10.45;;;10.10;99.90;;;;;;4824496;29;20081;-77
2022/10/21 09:53:32;;;;;;;15.73;10.05;;;10.00;99.90;;;;;;4827882;29;20140;-79
2022/10/21 09:56:02;;;;;;;13.07;10.02;;;10.00;99.90;;;;;;4833939;29;20058;-78
2022/10/21 09:58:45;;;;;;;15.48;10.85;;;10.00;99.90;;;;;;4831488;29;20106;-77
2022/10/21 10:01:17;;;;;;;23.63;11.07;;;10.10;99.90;;;;;;4834761;29;20412;-74
2022/10/21 10:03:47;;;;;;;17.58;9.60;;;10.10;99.90;;;;;;4839020;29;20064;-74
2022/10/21 10:06:33;;;;;;;16.10;10.05;;;10.10;99.90;;;;;;4830180;29;20150;-74
2022/10/21 10:09:12;;;;;;;14.07;10.20;;;10.20;99.90;;;;;;4826993;29;20115;-73
2022/10/21 10:11:50;;;;;;;14.30;9.77;;;10.20;99.90;;;;;;4833509;29;20050;-73
2022/10/21 10:14:27;;;;;;;17.20;10.60;;;10.20;99.90;;;;;;4827441;29;20062;-73
2022/10/21 10:16:56;;;;;;;15.80;8.93;;;10.10;99.90;;;;;;4833847;29;20591;-79
2022/10/21 10:19:25;;;;;;;18.92;10.23;;;10.00;99.90;;;;;;4829965;29;20357;-78
2022/10/21 10:22:13;;;;;;;17.08;10.23;;;9.90;99.90;;;;;;4832468;29;20517;-73
2022/10/21 10:24:44;;;;;;;16.65;9.20;;;9.90;99.90;;;;;;4818992;29;20554;-73
2022/10/21 10:27:14;;;;;;;15.40;9.32;;;9.80;99.90;;;;;;4820930;29;20425;-74
2022/10/21 10:29:48;;;;;;;11.95;9.23;;;9.70;99.90;;;;;;4832600;29;20096;-78
2022/10/21 10:32:16;;;;;;;13.15;9.95;;;9.60;99.90;;;;;;4836948;29;20499;-78
2022/10/21 10:34:52;;;;;;;15.50;9.85;;;9.60;99.90;;;;;;4837606;29;20056;-73
2022/10/21 10:37:24;;;;;;;18.42;9.65;;;9.70;99.90;;;;;;4826182;29;20046;-72
2022/10/21 10:39:54;;;;;;;21.75;9.95;;;9.80;99.90;;;;;;4825555;29;20550;-74
2022/10/21 10:42:24;;;;;;;16.40;10.20;;;9.90;99.90;;;;;;4830794;29;20042;-72
2022/10/21 10:44:59;;;;;;;14.65;10.40;;;10.10;99.90;;;;;;4828370;29;20050;-75
2022/10/21 10:47:29;;;;;;;16.08;10.32;;;10.20;99.90;;;;;;4826326;29;20161;-73
2022/10/21 10:49:56;;;;;;;20.20;10.70;;;10.30;99.90;;;;;;4830376;29;20154;-73
2022/10/21 10:52:25;;;;;;;22.98;10.43;;;10.30;99.90;;;;;;4821679;29;20085;-74
2022/10/21 10:55:16;;;;;;;18.35;10.57;;;10.40;99.90;;;;;;4836385;29;20523;-74
2022/10/21 10:57:49;;;;;;;18.83;10.05;;;10.40;99.90;;;;;;4828671;29;20050;-74
2022/10/21 11:00:19;;;;;;;16.95;10.70;;;10.50;99.90;;;;;;4836015;29;20479;-74
2022/10/21 11:02:53;;;;;;;22.30;9.65;;;10.50;99.90;;;;;;4827596;29;20065;-75
2022/10/21 11:05:26;;;;;;;17.55;9.73;;;10.50;99.90;;;;;;4841819;29;20149;-74
2022/10/21 11:07:58;;;;;;;17.17;10.30;;;10.50;99.90;;;;;;4839992;29;20088;-73
2022/10/21 11:10:34;;;;;;;23.58;10.27;;;10.50;99.90;;;;;;4836835;29;20115;-75
2022/10/21 11:13:03;;;;;;;14.13;9.85;;;10.50;99.90;;;;;;4827817;29;20419;-73
2022/10/21 11:15:46;;;;;;;23.85;11.73;;;10.60;99.90;;;;;;4837910;29;20097;-74
2022/10/21 11:18:22;;;;;;;18.05;10.65;;;10.70;99.90;;;;;;4839809;29;20053;-74
2022/10/21 11:21:00;;;;;;;19.27;10.93;;;10.80;99.90;;;;;;4841858;29;20077;-73
2022/10/21 11:24:06;;;;;;;25.67;10.90;;;10.80;99.90;;;;;;4841598;29;20062;-74
2022/10/21 11:26:45;;;;;;;16.00;10.57;;;10.80;99.90;;;;;;4818963;29;20676;-73
2022/10/21 11:29:25;;;;;;;18.55;8.93;;;10.70;99.90;;;;;;4834700;29;20529;-74
2022/10/21 11:31:59;;;;;;;17.73;9.48;;;10.60;99.90;;;;;;4828154;29;20093;-73
2022/10/21 11:34:35;;;;;;;16.58;10.52;;;10.40;99.90;;;;;;4841905;29;20057;-74
2022/10/21 11:37:11;;;;;;;19.60;11.30;;;10.30;99.90;;;;;;4827478;29;20065;-74
2022/10/21 11:39:49;;;;;;;20.65;10.32;;;10.30;99.90;;;;;;4841500;29;20156;-73
2022/10/21 11:42:23;;;;;;;22.58;10.40;;;10.30;99.90;;;;;;4828899;29;20149;-73
2022/10/21 11:45:12;;;;;;;18.63;9.48;;;10.30;99.90;;;;;;4832923;29;20057;-73
2022/10/21 11:47:52;;;;;;;22.42;10.10;;;10.20;99.90;;;;;;4829731;29;20053;-73
2022/10/21 11:50:25;;;;;;;14.15;9.55;;;10.20;99.90;;;;;;4839234;29;20077;-80
2022/10/21 11:53:11;;;;;;;22.73;13.35;;;10.10;99.90;;;;;;4834395;29;20059;-78
2022/10/21 11:55:43;;;;;;;13.07;11.02;;;10.10;99.90;;;;;;4831040;29;20069;-78
2022/10/21 11:58:22;;;;;;;31.70;11.20;;;10.00;99.90;;;;;;4838070;29;20534;-78
2022/10/21 12:00:58;;;;;;;21.02;10.82;;;10.00;99.90;;;;;;4830637;29;20077;-79
2022/10/21 12:03:44;;;;;;;16.63;11.27;;;9.90;99.90;;;;;;4836183;29;20085;-78
2022/10/21 12:06:22;;;;;;;15.60;11.38;;;9.90;99.90;;;;;;4830353;29;20058;-77
2022/10/21 12:08:54;;;;;;;14.93;10.65;;;9.90;99.90;;;;;;4839630;29;20050;-78
2022/10/21 12:11:29;;;;;;;18.33;10.65;;;9.80;99.90;;;;;;4824917;29;20050;-79
2022/10/21 12:14:00;;;;;;;20.88;11.02;;;9.80;99.90;;;;;;4839088;29;20146;-77
2022/10/21 12:16:30;;;;;;;18.80;11.55;;;9.80;99.90;;;;;;4809500;29;20046;-77
2022/10/21 12:19:00;;;;;;;18.95;11.18;;;9.80;99.90;;;;;;4832750;29;20537;-78
2022/10/21 12:21:31;;;;;;;18.65;11.25;;;9.80;99.90;;;;;;4823979;29;20070;-78
2022/10/21 12:24:04;;;;;;;22.55;13.25;;;9.80;99.90;;;;;;4834936;29;20058;-76
2022/10/21 12:26:39;;;;;;;14.95;10.52;;;9.70;99.90;;;;;;4827232;29;20103;-77
2022/10/21 12:29:15;;;;;;;14.90;10.57;;;9.70;99.90;;;;;;4818547;29;20056;-73
2022/10/21 12:31:51;;;;;;;17.63;10.75;;;9.70;99.90;;;;;;4840435;29;20507;-72
2022/10/21 12:34:18;;;;;;;17.95;12.15;;;9.70;99.90;;;;;;4836856;29;20076;-72
2022/10/21 12:36:49;;;;;;;16.45;11.05;;;9.60;99.90;;;;;;4831967;29;20577;-73
2022/10/21 12:39:38;;;;;;;12.45;10.45;;;9.60;99.90;;;;;;4838771;29;20057;-73
2022/10/21 12:42:11;;;;;;;15.73;11.30;;;9.60;99.90;;;;;;4822619;29;20064;-74
2022/10/21 12:44:44;;;;;;;19.60;11.23;;;9.60;99.90;;;;;;4825167;29;20046;-73
2022/10/21 12:47:23;;;;;;;;;;;9.60;99.90;;;;;;4840111;29;20689;-73
2022/10/21 12:50:05;;;;;;;14.98;10.55;;;9.60;99.90;;;;;;4836301;29;19936;-73
2022/10/21 12:52:37;;;;;;;21.95;11.40;;;9.50;99.90;;;;;;4833513;29;20054;-73
2022/10/21 12:55:07;;;;;;;18.55;10.57;;;9.50;99.90;;;;;;4832522;29;20066;-72
2022/10/21 12:57:38;;;;;;;30.17;11.07;;;9.50;99.90;;;;;;4829452;29;20076;-73
2022/10/21 13:00:36;;;;;;;24.60;10.85;;;9.50;99.90;;;;;;4815690;29;20059;-73
2022/10/21 13:03:06;;;;;;;16.77;10.73;;;9.50;99.90;;;;;;4820936;29;20073;-73
2022/10/21 13:06:00;;;;;;;16.70;10.80;;;9.50;99.90;;;;;;4821591;29;20054;-73
2022/10/21 13:08:36;;;;;;;18.77;9.38;;;9.50;99.90;;;;;;4818546;29;20494;-73